sensor_id;sensor_type;location;lat;lon;timestamp;temperature;humidity
360;DHT22;168;48.872;9.226;2022-11-23T00:02:10;6.30;99.90
360;DHT22;168;48.872;9.226;2022-11-23T00:04:37;6.30;99.90
360;DHT22;168;48.872;9.226;2022-11-23T00:07:06;6.20;99.90
360;DHT22;168;48.872;9.226;2022-11-23T00:09:33;6.30;99.90
360;DHT22;168;48.872;9.226;2022-11-23T00:12:01;6.20;99.90
360;DHT22;168;48.872;9.226;2022-11-23T00:14:28;6.20;99.90
360;DHT22;168;48.872;9.226;2022-11-23T00:16:55;6.10;99.90
360;DHT22;168;48.872;9.226;2022-11-23T00:19:23;6.10;99.90
360;DHT22;168;48.872;9.226;2022-11-23T00:21:50;6.00;99.90
360;DHT22;168;48.872;9.226;2022-11-23T00:24:19;6.10;99.90
360;DHT22;168;48.872;9.226;2022-11-23T00:26:47;6.10;99.90
360;DHT22;168;48.872;9.226;2022-11-23T00:29:14;6.00;99.90
360;DHT22;168;48.872;9.226;2022-11-23T00:31:41;6.00;99.90
360;DHT22;168;48.872;9.226;2022-11-23T00:34:09;6.00;99.90
360;DHT22;168;48.872;9.226;2022-11-23T00:36:36;5.90;99.90
360;DHT22;168;48.872;9.226;2022-11-23T00:39:03;6.00;99.90
360;DHT22;168;48.872;9.226;2022-11-23T00:41:32;5.90;99.90
360;DHT22;168;48.872;9.226;2022-11-23T00:43:59;6.00;99.90
360;DHT22;168;48.872;9.226;2022-11-23T00:46:27;6.00;99.90
360;DHT22;168;48.872;9.226;2022-11-23T00:48:56;6.10;99.90
360;DHT22;168;48.872;9.226;2022-11-23T00:51:25;6.10;99.90
360;DHT22;168;48.872;9.226;2022-11-23T00:53:53;6.20;99.90
360;DHT22;168;48.872;9.226;2022-11-23T00:56:20;6.30;99.90
360;DHT22;168;48.872;9.226;2022-11-23T00:58:49;6.30;99.90
360;DHT22;168;48.872;9.226;2022-11-23T01:01:19;6.30;99.90
360;DHT22;168;48.872;9.226;2022-11-23T01:03:48;6.40;99.90
360;DHT22;168;48.872;9.226;2022-11-23T01:06:17;6.40;99.90
360;DHT22;168;48.872;9.226;2022-11-23T01:08:47;6.50;99.90
360;DHT22;168;48.872;9.226;2022-11-23T01:11:16;6.50;99.90
360;DHT22;168;48.872;9.226;2022-11-23T01:13:44;6.60;99.90
360;DHT22;168;48.872;9.226;2022-11-23T01:16:15;6.60;99.90
360;DHT22;168;48.872;9.226;2022-11-23T01:18:42;6.70;99.90
360;DHT22;168;48.872;9.226;2022-11-23T01:21:10;6.70;99.90
360;DHT22;168;48.872;9.226;2022-11-23T01:23:37;6.70;99.90
360;DHT22;168;48.872;9.226;2022-11-23T01:26:06;6.70;99.90
360;DHT22;168;48.872;9.226;2022-11-23T01:28:34;6.70;99.90
360;DHT22;168;48.872;9.226;2022-11-23T01:31:03;6.80;99.90
360;DHT22;168;48.872;9.226;2022-11-23T01:33:33;6.80;99.90
360;DHT22;168;48.872;9.226;2022-11-23T01:36:08;6.80;99.90
360;DHT22;168;48.872;9.226;2022-11-23T01:38:35;6.80;99.90
360;DHT22;168;48.872;9.226;2022-11-23T01:41:03;6.80;99.90
360;DHT22;168;48.872;9.226;2022-11-23T01:43:31;6.80;99.90
360;DHT22;168;48.872;9.226;2022-11-23T01:46:00;6.80;99.90
360;DHT22;168;48.872;9.226;2022-11-23T01:48:29;6.70;99.90
360;DHT22;168;48.872;9.226;2022-11-23T01:51:02;6.70;99.90
360;DHT22;168;48.872;9.226;2022-11-23T01:53:32;6.70;99.90
360;DHT22;168;48.872;9.226;2022-11-23T01:56:02;6.60;99.90
360;DHT22;168;48.872;9.226;2022-11-23T01:58:33;6.60;99.90
360;DHT22;168;48.872;9.226;2022-11-23T02:01:02;6.60;99.90
360;DHT22;168;48.872;9.226;2022-11-23T02:03:31;6.50;99.90
360;DHT22;168;48.872;9.226;2022-11-23T02:06:06;6.40;99.90
360;DHT22;168;48.872;9.226;2022-11-23T02:08:36;6.40;99.90
360;DHT22;168;48.872;9.226;2022-11-23T02:11:04;6.30;99.90
360;DHT22;168;48.872;9.226;2022-11-23T02:13:32;6.20;99.90
360;DHT22;168;48.872;9.226;2022-11-23T02:15:59;6.20;99.90
360;DHT22;168;48.872;9.226;2022-11-23T02:18:29;6.10;99.90
360;DHT22;168;48.872;9.226;2022-11-23T02:20:59;6.10;99.90
360;DHT22;168;48.872;9.226;2022-11-23T02:23:33;6.10;99.90
360;DHT22;168;48.872;9.226;2022-11-23T02:26:07;6.10;99.90
360;DHT22;168;48.872;9.226;2022-11-23T02:28:37;6.10;99.90
360;DHT22;168;48.872;9.226;2022-11-23T02:31:06;6.10;99.90
360;DHT22;168;48.872;9.226;2022-11-23T02:33:42;6.20;99.90
360;DHT22;168;48.872;9.226;2022-11-23T02:36:29;6.30;99.90
360;DHT22;168;48.872;9.226;2022-11-23T02:38:59;6.20;99.90
360;DHT22;168;48.872;9.226;2022-11-23T02:41:34;6.30;99.90
360;DHT22;168;48.872;9.226;2022-11-23T02:44:03;6.30;99.90
360;DHT22;168;48.872;9.226;2022-11-23T02:46:33;6.20;99.90
360;DHT22;168;48.872;9.226;2022-11-23T02:49:01;6.30;99.90
360;DHT22;168;48.872;9.226;2022-11-23T02:51:28;6.30;99.90
360;DHT22;168;48.872;9.226;2022-11-23T02:53:56;6.30;99.90
360;DHT22;168;48.872;9.226;2022-11-23T02:56:23;6.30;99.90
360;DHT22;168;48.872;9.226;2022-11-23T02:58:52;6.30;99.90
360;DHT22;168;48.872;9.226;2022-11-23T03:01:19;6.30;99.90
360;DHT22;168;48.872;9.226;2022-11-23T03:03:47;6.30;99.90
360;DHT22;168;48.872;9.226;2022-11-23T03:06:14;6.30;99.90
360;DHT22;168;48.872;9.226;2022-11-23T03:08:41;6.30;99.90
360;DHT22;168;48.872;9.226;2022-11-23T03:11:09;6.30;99.90
360;DHT22;168;48.872;9.226;2022-11-23T03:13:37;6.20;99.90
360;DHT22;168;48.872;9.226;2022-11-23T03:16:06;6.20;99.90
360;DHT22;168;48.872;9.226;2022-11-23T03:18:33;6.20;99.90
360;DHT22;168;48.872;9.226;2022-11-23T03:21:01;6.20;99.90
360;DHT22;168;48.872;9.226;2022-11-23T03:23:29;6.20;99.90
360;DHT22;168;48.872;9.226;2022-11-23T03:25:57;6.20;99.90
360;DHT22;168;48.872;9.226;2022-11-23T03:28:25;6.20;99.90
360;DHT22;168;48.872;9.226;2022-11-23T03:30:53;6.30;99.90
360;DHT22;168;48.872;9.226;2022-11-23T03:33:22;6.30;99.90
360;DHT22;168;48.872;9.226;2022-11-23T03:35:50;6.40;99.90
360;DHT22;168;48.872;9.226;2022-11-23T03:38:17;6.40;99.90
360;DHT22;168;48.872;9.226;2022-11-23T03:40:45;6.40;99.90
360;DHT22;168;48.872;9.226;2022-11-23T03:43:14;6.40;99.90
360;DHT22;168;48.872;9.226;2022-11-23T03:45:41;6.40;99.90
360;DHT22;168;48.872;9.226;2022-11-23T03:48:09;6.50;99.90
360;DHT22;168;48.872;9.226;2022-11-23T03:50:37;6.50;99.90
360;DHT22;168;48.872;9.226;2022-11-23T03:53:05;6.50;99.90
360;DHT22;168;48.872;9.226;2022-11-23T03:55:33;6.50;99.90
360;DHT22;168;48.872;9.226;2022-11-23T03:58:00;6.50;99.90
360;DHT22;168;48.872;9.226;2022-11-23T04:00:29;6.50;99.90
360;DHT22;168;48.872;9.226;2022-11-23T04:02:57;6.60;99.90
360;DHT22;168;48.872;9.226;2022-11-23T04:05:25;6.60;99.90
360;DHT22;168;48.872;9.226;2022-11-23T04:07:54;6.60;99.90
360;DHT22;168;48.872;9.226;2022-11-23T04:10:22;6.60;99.90
360;DHT22;168;48.872;9.226;2022-11-23T04:12:52;6.60;99.90
360;DHT22;168;48.872;9.226;2022-11-23T04:15:19;6.70;99.90
360;DHT22;168;48.872;9.226;2022-11-23T04:17:48;6.70;99.90
360;DHT22;168;48.872;9.226;2022-11-23T04:20:18;6.70;99.90
360;DHT22;168;48.872;9.226;2022-11-23T04:22:46;6.80;99.90
360;DHT22;168;48.872;9.226;2022-11-23T04:25:15;6.80;99.90
360;DHT22;168;48.872;9.226;2022-11-23T04:27:42;6.80;99.90
360;DHT22;168;48.872;9.226;2022-11-23T04:30:11;6.90;99.90
360;DHT22;168;48.872;9.226;2022-11-23T04:32:39;6.90;99.90
360;DHT22;168;48.872;9.226;2022-11-23T04:35:07;6.90;99.90
360;DHT22;168;48.872;9.226;2022-11-23T04:37:34;6.90;99.90
360;DHT22;168;48.872;9.226;2022-11-23T04:40:02;6.90;99.90
360;DHT22;168;48.872;9.226;2022-11-23T04:42:31;7.00;99.90
360;DHT22;168;48.872;9.226;2022-11-23T04:44:59;7.00;99.90
360;DHT22;168;48.872;9.226;2022-11-23T04:47:26;7.10;99.90
360;DHT22;168;48.872;9.226;2022-11-23T04:49:55;7.10;99.50
360;DHT22;168;48.872;9.226;2022-11-23T04:52:23;7.10;99.60
360;DHT22;168;48.872;9.226;2022-11-23T04:54:50;7.10;99.60
360;DHT22;168;48.872;9.226;2022-11-23T04:57:18;7.10;99.60
360;DHT22;168;48.872;9.226;2022-11-23T04:59:46;7.10;99.60
360;DHT22;168;48.872;9.226;2022-11-23T05:02:14;7.10;99.50
360;DHT22;168;48.872;9.226;2022-11-23T05:04:41;7.10;99.50
360;DHT22;168;48.872;9.226;2022-11-23T05:07:09;7.00;99.50
360;DHT22;168;48.872;9.226;2022-11-23T05:09:36;7.00;99.40
360;DHT22;168;48.872;9.226;2022-11-23T05:12:04;7.00;99.40
360;DHT22;168;48.872;9.226;2022-11-23T05:14:32;7.00;99.50
360;DHT22;168;48.872;9.226;2022-11-23T05:17:01;7.00;99.40
360;DHT22;168;48.872;9.226;2022-11-23T05:19:28;6.90;99.40
360;DHT22;168;48.872;9.226;2022-11-23T05:21:56;6.90;99.40
360;DHT22;168;48.872;9.226;2022-11-23T05:24:23;6.90;99.30
360;DHT22;168;48.872;9.226;2022-11-23T05:26:51;6.80;99.30
360;DHT22;168;48.872;9.226;2022-11-23T05:29:18;6.80;99.30
360;DHT22;168;48.872;9.226;2022-11-23T05:31:46;6.70;99.60
360;DHT22;168;48.872;9.226;2022-11-23T05:34:15;6.70;99.60
360;DHT22;168;48.872;9.226;2022-11-23T05:36:42;6.70;99.60
360;DHT22;168;48.872;9.226;2022-11-23T05:39:12;6.60;99.60
360;DHT22;168;48.872;9.226;2022-11-23T05:41:40;6.60;99.60
360;DHT22;168;48.872;9.226;2022-11-23T05:47:33;6.40;99.90
360;DHT22;168;48.872;9.226;2022-11-23T05:50:02;6.40;99.90
360;DHT22;168;48.872;9.226;2022-11-23T05:52:30;6.30;99.90
360;DHT22;168;48.872;9.226;2022-11-23T05:54:57;6.30;99.90
360;DHT22;168;48.872;9.226;2022-11-23T05:57:25;6.30;99.90
360;DHT22;168;48.872;9.226;2022-11-23T05:59:52;6.30;99.90
360;DHT22;168;48.872;9.226;2022-11-23T06:02:19;6.40;99.90
360;DHT22;168;48.872;9.226;2022-11-23T06:04:47;6.40;99.90
360;DHT22;168;48.872;9.226;2022-11-23T06:07:16;6.40;99.90
360;DHT22;168;48.872;9.226;2022-11-23T06:09:43;6.50;99.90
360;DHT22;168;48.872;9.226;2022-11-23T06:12:11;6.50;99.90
360;DHT22;168;48.872;9.226;2022-11-23T06:14:38;6.60;99.90
360;DHT22;168;48.872;9.226;2022-11-23T06:17:06;6.70;99.90
360;DHT22;168;48.872;9.226;2022-11-23T06:19:35;6.70;99.90
360;DHT22;168;48.872;9.226;2022-11-23T06:22:03;6.80;99.80
360;DHT22;168;48.872;9.226;2022-11-23T06:24:32;6.80;99.70
360;DHT22;168;48.872;9.226;2022-11-23T06:27:02;6.80;99.60
360;DHT22;168;48.872;9.226;2022-11-23T06:29:34;6.80;99.70
360;DHT22;168;48.872;9.226;2022-11-23T06:32:02;6.90;99.60
360;DHT22;168;48.872;9.226;2022-11-23T06:34:29;6.90;99.50
360;DHT22;168;48.872;9.226;2022-11-23T06:36:57;6.90;99.30
360;DHT22;168;48.872;9.226;2022-11-23T06:39:24;6.90;99.30
360;DHT22;168;48.872;9.226;2022-11-23T06:41:54;6.90;99.30
360;DHT22;168;48.872;9.226;2022-11-23T06:44:21;6.90;99.30
360;DHT22;168;48.872;9.226;2022-11-23T06:46:49;6.80;99.40
360;DHT22;168;48.872;9.226;2022-11-23T06:49:20;6.90;99.40
360;DHT22;168;48.872;9.226;2022-11-23T06:51:47;6.90;99.30
360;DHT22;168;48.872;9.226;2022-11-23T06:54:15;6.90;99.00
360;DHT22;168;48.872;9.226;2022-11-23T06:56:44;6.90;99.00
360;DHT22;168;48.872;9.226;2022-11-23T06:59:13;6.90;99.00
360;DHT22;168;48.872;9.226;2022-11-23T07:01:41;6.90;98.90
360;DHT22;168;48.872;9.226;2022-11-23T07:04:08;6.90;98.90
360;DHT22;168;48.872;9.226;2022-11-23T07:06:38;6.90;98.90
360;DHT22;168;48.872;9.226;2022-11-23T07:09:06;6.90;99.10
360;DHT22;168;48.872;9.226;2022-11-23T07:11:34;6.80;99.10
360;DHT22;168;48.872;9.226;2022-11-23T07:14:02;6.80;99.20
360;DHT22;168;48.872;9.226;2022-11-23T07:16:30;6.90;99.10
360;DHT22;168;48.872;9.226;2022-11-23T07:18:58;6.90;99.10
360;DHT22;168;48.872;9.226;2022-11-23T07:21:25;6.90;99.00
360;DHT22;168;48.872;9.226;2022-11-23T07:23:53;6.90;99.10
360;DHT22;168;48.872;9.226;2022-11-23T07:26:20;7.00;99.10
360;DHT22;168;48.872;9.226;2022-11-23T07:28:48;7.00;99.00
360;DHT22;168;48.872;9.226;2022-11-23T07:31:15;7.10;99.00
360;DHT22;168;48.872;9.226;2022-11-23T07:33:45;7.10;98.90
360;DHT22;168;48.872;9.226;2022-11-23T07:36:12;7.20;98.70
360;DHT22;168;48.872;9.226;2022-11-23T07:38:40;7.20;98.60
360;DHT22;168;48.872;9.226;2022-11-23T07:41:08;7.30;98.60
360;DHT22;168;48.872;9.226;2022-11-23T07:43:35;7.30;98.50
360;DHT22;168;48.872;9.226;2022-11-23T07:46:03;7.40;98.40
360;DHT22;168;48.872;9.226;2022-11-23T07:48:30;7.40;98.30
360;DHT22;168;48.872;9.226;2022-11-23T07:50:59;7.50;98.40
360;DHT22;168;48.872;9.226;2022-11-23T07:53:27;7.70;98.20
360;DHT22;168;48.872;9.226;2022-11-23T07:55:55;7.90;97.80
360;DHT22;168;48.872;9.226;2022-11-23T07:58:24;8.20;97.10
360;DHT22;168;48.872;9.226;2022-11-23T08:00:51;8.40;95.80
360;DHT22;168;48.872;9.226;2022-11-23T08:03:19;8.70;95.40
360;DHT22;168;48.872;9.226;2022-11-23T08:05:47;8.80;94.70
360;DHT22;168;48.872;9.226;2022-11-23T08:08:16;9.00;94.20
360;DHT22;168;48.872;9.226;2022-11-23T08:10:43;9.20;93.00
360;DHT22;168;48.872;9.226;2022-11-23T08:13:11;9.30;92.50
360;DHT22;168;48.872;9.226;2022-11-23T08:15:38;9.50;91.20
360;DHT22;168;48.872;9.226;2022-11-23T08:18:05;9.60;90.70
360;DHT22;168;48.872;9.226;2022-11-23T08:20:34;9.60;90.50
360;DHT22;168;48.872;9.226;2022-11-23T08:23:02;9.60;90.50
360;DHT22;168;48.872;9.226;2022-11-23T08:25:31;9.70;90.00
360;DHT22;168;48.872;9.226;2022-11-23T08:28:00;9.70;90.40
360;DHT22;168;48.872;9.226;2022-11-23T08:30:29;9.70;90.50
360;DHT22;168;48.872;9.226;2022-11-23T08:32:57;9.80;90.70
360;DHT22;168;48.872;9.226;2022-11-23T08:35:25;9.90;90.60
360;DHT22;168;48.872;9.226;2022-11-23T08:37:53;9.90;90.70
360;DHT22;168;48.872;9.226;2022-11-23T08:40:20;10.10;89.70
360;DHT22;168;48.872;9.226;2022-11-23T08:42:49;10.20;89.00
360;DHT22;168;48.872;9.226;2022-11-23T08:45:17;10.30;89.00
360;DHT22;168;48.872;9.226;2022-11-23T08:47:45;10.40;88.80
360;DHT22;168;48.872;9.226;2022-11-23T08:50:13;10.50;88.70
360;DHT22;168;48.872;9.226;2022-11-23T08:52:40;10.50;88.40
360;DHT22;168;48.872;9.226;2022-11-23T08:55:08;10.60;88.20
360;DHT22;168;48.872;9.226;2022-11-23T08:57:36;10.70;87.90
360;DHT22;168;48.872;9.226;2022-11-23T09:00:06;10.80;87.20
360;DHT22;168;48.872;9.226;2022-11-23T09:02:34;10.90;85.50
360;DHT22;168;48.872;9.226;2022-11-23T09:05:01;10.80;85.70
360;DHT22;168;48.872;9.226;2022-11-23T09:07:31;10.80;86.60
360;DHT22;168;48.872;9.226;2022-11-23T09:09:58;10.80;86.40
360;DHT22;168;48.872;9.226;2022-11-23T09:12:25;10.80;86.00
360;DHT22;168;48.872;9.226;2022-11-23T09:14:53;10.80;87.00
360;DHT22;168;48.872;9.226;2022-11-23T09:17:22;10.80;87.00
360;DHT22;168;48.872;9.226;2022-11-23T09:19:49;10.90;86.90
360;DHT22;168;48.872;9.226;2022-11-23T09:22:17;10.90;86.50
360;DHT22;168;48.872;9.226;2022-11-23T09:24:44;10.90;86.20
360;DHT22;168;48.872;9.226;2022-11-23T09:27:12;10.90;86.30
360;DHT22;168;48.872;9.226;2022-11-23T09:29:39;11.00;86.30
360;DHT22;168;48.872;9.226;2022-11-23T09:32:07;11.00;85.50
360;DHT22;168;48.872;9.226;2022-11-23T09:34:36;11.10;85.30
360;DHT22;168;48.872;9.226;2022-11-23T09:37:03;11.10;84.70
360;DHT22;168;48.872;9.226;2022-11-23T09:39:31;11.10;84.60
360;DHT22;168;48.872;9.226;2022-11-23T09:42:09;11.20;84.40
360;DHT22;168;48.872;9.226;2022-11-23T09:45:14;11.20;84.20
360;DHT22;168;48.872;9.226;2022-11-23T09:48:09;11.30;84.30
360;DHT22;168;48.872;9.226;2022-11-23T09:50:46;11.30;84.20
360;DHT22;168;48.872;9.226;2022-11-23T09:53:18;11.40;84.10
360;DHT22;168;48.872;9.226;2022-11-23T09:55:48;11.40;84.10
360;DHT22;168;48.872;9.226;2022-11-23T09:58:17;11.40;83.90
360;DHT22;168;48.872;9.226;2022-11-23T10:00:50;11.50;82.80
360;DHT22;168;48.872;9.226;2022-11-23T10:03:20;11.50;82.90
360;DHT22;168;48.872;9.226;2022-11-23T10:05:56;11.50;83.20
360;DHT22;168;48.872;9.226;2022-11-23T10:08:37;11.50;82.90
360;DHT22;168;48.872;9.226;2022-11-23T10:11:29;11.60;82.00
360;DHT22;168;48.872;9.226;2022-11-23T10:14:12;11.60;82.50
360;DHT22;168;48.872;9.226;2022-11-23T10:16:46;11.70;83.20
360;DHT22;168;48.872;9.226;2022-11-23T10:19:25;11.70;82.40
360;DHT22;168;48.872;9.226;2022-11-23T10:22:04;11.70;83.00
360;DHT22;168;48.872;9.226;2022-11-23T10:24:38;11.80;82.10
360;DHT22;168;48.872;9.226;2022-11-23T10:27:12;11.80;82.10
360;DHT22;168;48.872;9.226;2022-11-23T10:29:41;11.90;81.60
360;DHT22;168;48.872;9.226;2022-11-23T10:32:19;11.80;81.50
360;DHT22;168;48.872;9.226;2022-11-23T10:34:57;11.90;81.70
360;DHT22;168;48.872;9.226;2022-11-23T10:37:26;11.90;82.00
360;DHT22;168;48.872;9.226;2022-11-23T10:39:54;11.90;81.60
360;DHT22;168;48.872;9.226;2022-11-23T10:42:25;12.00;80.50
360;DHT22;168;48.872;9.226;2022-11-23T10:44:55;12.00;81.80
360;DHT22;168;48.872;9.226;2022-11-23T10:47:36;12.10;81.60
360;DHT22;168;48.872;9.226;2022-11-23T10:50:26;12.20;80.60
360;DHT22;168;48.872;9.226;2022-11-23T10:52:59;12.20;79.90
360;DHT22;168;48.872;9.226;2022-11-23T10:55:29;12.20;79.60
360;DHT22;168;48.872;9.226;2022-11-23T10:57:57;12.20;78.90
360;DHT22;168;48.872;9.226;2022-11-23T11:00:27;12.10;79.60
360;DHT22;168;48.872;9.226;2022-11-23T11:02:56;12.00;79.70
360;DHT22;168;48.872;9.226;2022-11-23T11:05:27;12.10;80.10
360;DHT22;168;48.872;9.226;2022-11-23T11:07:58;12.10;79.90
360;DHT22;168;48.872;9.226;2022-11-23T11:10:37;12.20;79.10
360;DHT22;168;48.872;9.226;2022-11-23T11:13:23;12.20;80.40
360;DHT22;168;48.872;9.226;2022-11-23T11:15:53;12.20;80.60
360;DHT22;168;48.872;9.226;2022-11-23T11:18:20;12.20;79.90
360;DHT22;168;48.872;9.226;2022-11-23T11:20:57;12.20;80.40
360;DHT22;168;48.872;9.226;2022-11-23T11:23:27;12.30;80.50
360;DHT22;168;48.872;9.226;2022-11-23T11:26:08;12.40;80.30
360;DHT22;168;48.872;9.226;2022-11-23T11:28:40;12.50;79.80
360;DHT22;168;48.872;9.226;2022-11-23T11:31:27;12.50;79.90
360;DHT22;168;48.872;9.226;2022-11-23T11:34:06;12.50;79.50
360;DHT22;168;48.872;9.226;2022-11-23T11:36:39;12.60;79.20
360;DHT22;168;48.872;9.226;2022-11-23T11:39:16;12.60;78.70
360;DHT22;168;48.872;9.226;2022-11-23T11:41:46;12.70;77.10
360;DHT22;168;48.872;9.226;2022-11-23T11:44:18;12.70;76.90
360;DHT22;168;48.872;9.226;2022-11-23T11:46:52;12.70;76.70
360;DHT22;168;48.872;9.226;2022-11-23T11:49:27;12.80;75.60
360;DHT22;168;48.872;9.226;2022-11-23T11:52:01;12.70;74.60
360;DHT22;168;48.872;9.226;2022-11-23T11:54:36;12.70;76.60
360;DHT22;168;48.872;9.226;2022-11-23T11:57:16;12.70;77.10
360;DHT22;168;48.872;9.226;2022-11-23T11:59:47;12.70;75.30
360;DHT22;168;48.872;9.226;2022-11-23T12:02:22;12.70;75.80
360;DHT22;168;48.872;9.226;2022-11-23T12:04:56;12.80;74.50
360;DHT22;168;48.872;9.226;2022-11-23T12:07:29;12.80;74.70
360;DHT22;168;48.872;9.226;2022-11-23T12:10:04;12.90;73.50
360;DHT22;168;48.872;9.226;2022-11-23T12:12:34;12.90;74.50
360;DHT22;168;48.872;9.226;2022-11-23T12:15:04;12.80;73.70
360;DHT22;168;48.872;9.226;2022-11-23T12:17:43;12.90;72.50
360;DHT22;168;48.872;9.226;2022-11-23T12:20:21;12.80;72.30
360;DHT22;168;48.872;9.226;2022-11-23T12:23:02;12.80;71.80
360;DHT22;168;48.872;9.226;2022-11-23T12:25:37;12.80;72.50
360;DHT22;168;48.872;9.226;2022-11-23T12:28:27;12.70;72.30
360;DHT22;168;48.872;9.226;2022-11-23T12:31:07;12.70;72.70
360;DHT22;168;48.872;9.226;2022-11-23T12:34:01;12.60;72.20
360;DHT22;168;48.872;9.226;2022-11-23T12:36:54;12.60;71.80
360;DHT22;168;48.872;9.226;2022-11-23T12:39:44;12.60;71.20
360;DHT22;168;48.872;9.226;2022-11-23T12:42:22;12.50;71.40
360;DHT22;168;48.872;9.226;2022-11-23T12:45:05;12.50;71.60
360;DHT22;168;48.872;9.226;2022-11-23T12:47:46;12.40;71.80
360;DHT22;168;48.872;9.226;2022-11-23T12:50:22;12.30;73.10
360;DHT22;168;48.872;9.226;2022-11-23T12:53:00;12.30;71.10
360;DHT22;168;48.872;9.226;2022-11-23T12:55:36;12.30;70.20
360;DHT22;168;48.872;9.226;2022-11-23T12:58:14;12.20;71.30
360;DHT22;168;48.872;9.226;2022-11-23T13:00:45;12.20;72.00
360;DHT22;168;48.872;9.226;2022-11-23T13:09:46;12.10;70.70
360;DHT22;168;48.872;9.226;2022-11-23T13:12:32;12.10;72.50
360;DHT22;168;48.872;9.226;2022-11-23T13:15:30;12.10;72.40
360;DHT22;168;48.872;9.226;2022-11-23T13:18:10;12.20;72.30
360;DHT22;168;48.872;9.226;2022-11-23T13:21:01;12.20;71.90
360;DHT22;168;48.872;9.226;2022-11-23T13:23:34;12.10;70.80
360;DHT22;168;48.872;9.226;2022-11-23T13:26:13;12.00;71.80
360;DHT22;168;48.872;9.226;2022-11-23T13:28:40;11.90;71.20
360;DHT22;168;48.872;9.226;2022-11-23T13:31:24;11.80;73.10
360;DHT22;168;48.872;9.226;2022-11-23T13:33:53;11.80;74.00
360;DHT22;168;48.872;9.226;2022-11-23T13:36:42;11.80;72.90
360;DHT22;168;48.872;9.226;2022-11-23T13:42:08;11.90;74.20
360;DHT22;168;48.872;9.226;2022-11-23T13:44:36;11.80;73.70
360;DHT22;168;48.872;9.226;2022-11-23T13:47:17;11.70;73.80
360;DHT22;168;48.872;9.226;2022-11-23T13:49:47;11.60;75.50
360;DHT22;168;48.872;9.226;2022-11-23T13:52:28;11.60;76.10
360;DHT22;168;48.872;9.226;2022-11-23T13:55:02;11.60;76.20
360;DHT22;168;48.872;9.226;2022-11-23T13:57:31;11.60;75.70
360;DHT22;168;48.872;9.226;2022-11-23T14:06:14;11.40;77.20
360;DHT22;168;48.872;9.226;2022-11-23T14:08:46;11.40;77.40
360;DHT22;168;48.872;9.226;2022-11-23T14:11:18;11.40;78.00
360;DHT22;168;48.872;9.226;2022-11-23T14:13:51;11.30;79.10
360;DHT22;168;48.872;9.226;2022-11-23T14:16:32;11.30;79.00
360;DHT22;168;48.872;9.226;2022-11-23T14:19:08;11.30;78.30
360;DHT22;168;48.872;9.226;2022-11-23T14:21:46;11.30;78.80
360;DHT22;168;48.872;9.226;2022-11-23T14:24:28;11.20;79.70
360;DHT22;168;48.872;9.226;2022-11-23T14:27:07;11.20;79.10
360;DHT22;168;48.872;9.226;2022-11-23T14:29:57;11.10;79.60
360;DHT22;168;48.872;9.226;2022-11-23T14:32:49;11.20;77.80
360;DHT22;168;48.872;9.226;2022-11-23T14:35:29;11.20;77.00
360;DHT22;168;48.872;9.226;2022-11-23T14:38:21;11.10;77.40
360;DHT22;168;48.872;9.226;2022-11-23T14:40:59;11.00;79.10
360;DHT22;168;48.872;9.226;2022-11-23T14:43:28;10.90;78.50
360;DHT22;168;48.872;9.226;2022-11-23T14:46:00;10.80;79.80
360;DHT22;168;48.872;9.226;2022-11-23T14:48:29;10.70;80.10
360;DHT22;168;48.872;9.226;2022-11-23T14:50:58;10.80;80.20
360;DHT22;168;48.872;9.226;2022-11-23T14:53:31;10.70;80.40
360;DHT22;168;48.872;9.226;2022-11-23T14:55:59;10.70;80.00
360;DHT22;168;48.872;9.226;2022-11-23T14:58:29;10.80;79.60
360;DHT22;168;48.872;9.226;2022-11-23T15:00:59;10.60;80.50
360;DHT22;168;48.872;9.226;2022-11-23T15:03:28;10.60;80.90
360;DHT22;168;48.872;9.226;2022-11-23T15:06:05;10.60;78.90
360;DHT22;168;48.872;9.226;2022-11-23T15:08:40;10.40;79.50
360;DHT22;168;48.872;9.226;2022-11-23T15:11:12;10.30;80.70
360;DHT22;168;48.872;9.226;2022-11-23T15:13:42;10.30;81.20
360;DHT22;168;48.872;9.226;2022-11-23T15:16:12;10.20;81.70
360;DHT22;168;48.872;9.226;2022-11-23T15:18:39;10.20;81.90
360;DHT22;168;48.872;9.226;2022-11-23T15:21:16;10.00;82.30
360;DHT22;168;48.872;9.226;2022-11-23T15:23:48;9.90;82.70
360;DHT22;168;48.872;9.226;2022-11-23T15:26:18;9.90;83.30
360;DHT22;168;48.872;9.226;2022-11-23T15:28:46;9.70;84.10
360;DHT22;168;48.872;9.226;2022-11-23T15:31:24;9.60;84.40
360;DHT22;168;48.872;9.226;2022-11-23T15:33:54;9.60;84.40
360;DHT22;168;48.872;9.226;2022-11-23T15:36:24;9.50;85.10
360;DHT22;168;48.872;9.226;2022-11-23T15:38:57;9.50;85.30
360;DHT22;168;48.872;9.226;2022-11-23T15:41:26;9.40;85.60
360;DHT22;168;48.872;9.226;2022-11-23T15:43:56;9.40;85.60
360;DHT22;168;48.872;9.226;2022-11-23T15:46:26;9.30;85.60
360;DHT22;168;48.872;9.226;2022-11-23T15:48:57;9.30;85.60
360;DHT22;168;48.872;9.226;2022-11-23T15:51:27;9.20;85.60
360;DHT22;168;48.872;9.226;2022-11-23T15:54:00;9.20;85.50
360;DHT22;168;48.872;9.226;2022-11-23T15:56:30;9.10;85.20
360;DHT22;168;48.872;9.226;2022-11-23T15:59:01;9.10;85.60
360;DHT22;168;48.872;9.226;2022-11-23T16:01:30;9.10;85.60
360;DHT22;168;48.872;9.226;2022-11-23T16:03:58;9.10;86.00
360;DHT22;168;48.872;9.226;2022-11-23T16:06:35;9.00;86.30
360;DHT22;168;48.872;9.226;2022-11-23T16:09:32;8.90;86.40
360;DHT22;168;48.872;9.226;2022-11-23T16:12:00;9.00;86.50
360;DHT22;168;48.872;9.226;2022-11-23T16:14:28;8.90;87.20
360;DHT22;168;48.872;9.226;2022-11-23T16:17:00;8.90;87.20
360;DHT22;168;48.872;9.226;2022-11-23T16:19:30;9.00;86.50
360;DHT22;168;48.872;9.226;2022-11-23T16:22:00;9.00;86.80
360;DHT22;168;48.872;9.226;2022-11-23T16:24:31;9.10;86.40
360;DHT22;168;48.872;9.226;2022-11-23T16:26:59;9.10;86.20
360;DHT22;168;48.872;9.226;2022-11-23T16:29:33;9.20;85.70
360;DHT22;168;48.872;9.226;2022-11-23T16:32:02;9.20;85.10
360;DHT22;168;48.872;9.226;2022-11-23T16:34:32;9.20;85.40
360;DHT22;168;48.872;9.226;2022-11-23T16:37:01;9.20;85.60
360;DHT22;168;48.872;9.226;2022-11-23T16:39:30;9.30;85.70
360;DHT22;168;48.872;9.226;2022-11-23T16:41:58;9.40;85.30
360;DHT22;168;48.872;9.226;2022-11-23T16:44:28;9.50;84.90
360;DHT22;168;48.872;9.226;2022-11-23T16:47:20;9.60;84.10
360;DHT22;168;48.872;9.226;2022-11-23T16:49:49;9.60;83.70
360;DHT22;168;48.872;9.226;2022-11-23T16:52:17;9.70;82.60
360;DHT22;168;48.872;9.226;2022-11-23T16:54:46;9.90;82.10
360;DHT22;168;48.872;9.226;2022-11-23T16:57:21;9.90;82.60
360;DHT22;168;48.872;9.226;2022-11-23T17:04:45;10.30;83.10
360;DHT22;168;48.872;9.226;2022-11-23T17:07:12;10.30;83.90
360;DHT22;168;48.872;9.226;2022-11-23T17:09:39;10.30;84.20
360;DHT22;168;48.872;9.226;2022-11-23T17:12:13;10.30;85.00
360;DHT22;168;48.872;9.226;2022-11-23T17:14:41;10.30;85.10
360;DHT22;168;48.872;9.226;2022-11-23T17:17:19;10.30;86.20
360;DHT22;168;48.872;9.226;2022-11-23T17:19:48;10.20;86.30
360;DHT22;168;48.872;9.226;2022-11-23T17:22:18;10.30;86.90
360;DHT22;168;48.872;9.226;2022-11-23T17:24:47;10.20;87.40
360;DHT22;168;48.872;9.226;2022-11-23T17:27:19;10.30;87.40
360;DHT22;168;48.872;9.226;2022-11-23T17:29:52;10.30;87.50
360;DHT22;168;48.872;9.226;2022-11-23T17:32:21;10.20;89.70
360;DHT22;168;48.872;9.226;2022-11-23T17:34:49;10.30;86.70